createdAt,value
2024-03-05T02:18:23.667Z,13.10
2024-03-05T02:20:50.863Z,13.10
2024-03-05T02:23:17.959Z,12.50
2024-03-05T02:25:46.188Z,12.70
2024-03-05T02:28:14.709Z,12.20
2024-03-05T02:30:41.568Z,11.90
2024-03-05T02:33:08.835Z,12.00
2024-03-05T02:35:35.944Z,11.70
2024-03-05T02:38:07.375Z,11.20
2024-03-05T02:40:37.394Z,11.90
2024-03-05T02:43:04.894Z,11.10
2024-03-05T02:45:32.362Z,11.80
2024-03-05T02:48:07.727Z,12.60
2024-03-05T02:50:35.742Z,11.40
2024-03-05T02:53:04.369Z,12.20
2024-03-05T02:55:32.150Z,12.00
2024-03-05T02:58:00.075Z,12.80
2024-03-05T03:00:27.322Z,11.30
2024-03-05T03:02:54.950Z,11.30
2024-03-05T03:05:25.304Z,12.10
2024-03-05T03:07:53.553Z,11.80
2024-03-05T03:10:21.012Z,12.50
2024-03-05T03:12:49.481Z,12.20
2024-03-05T03:15:18.958Z,13.00
2024-03-05T03:17:46.363Z,12.70
2024-03-05T03:20:17.234Z,12.70
2024-03-05T03:22:45.352Z,12.50
2024-03-05T03:25:13.097Z,13.50
2024-03-05T03:27:44.299Z,12.30
2024-03-05T03:30:19.730Z,12.70
2024-03-05T03:32:52.390Z,12.60
2024-03-05T03:35:19.917Z,12.60
2024-03-05T03:37:48.008Z,12.90
2024-03-05T03:40:24.783Z,12.30
2024-03-05T03:42:52.864Z,12.20
2024-03-05T03:45:20.694Z,12.70
2024-03-05T03:47:48.658Z,11.00
2024-03-05T03:50:16.356Z,12.30
2024-03-05T03:52:45.598Z,11.70
2024-03-05T03:55:12.847Z,12.10
2024-03-05T03:57:40.967Z,12.70
2024-03-05T04:00:19.016Z,12.30
2024-03-05T04:02:48.128Z,11.60
2024-03-05T04:05:15.644Z,12.10
2024-03-05T04:07:44.222Z,12.10
2024-03-05T04:10:12.331Z,12.80
2024-03-05T04:12:42.508Z,11.20
2024-03-05T04:15:10.699Z,11.10
2024-03-05T04:17:43.986Z,12.00
2024-03-05T04:22:41.043Z,10.30
2024-03-05T04:25:10.980Z,11.40
2024-03-05T04:27:48.744Z,11.20
2024-03-05T04:30:16.951Z,10.60
2024-03-05T04:32:59.216Z,11.50
2024-03-05T04:35:29.684Z,10.50
2024-03-05T04:37:58.392Z,10.50
2024-03-05T04:40:26.138Z,11.40
2024-03-05T04:42:59.053Z,11.30
2024-03-05T04:47:58.154Z,9.20
2024-03-05T04:50:25.547Z,10.00
2024-03-05T04:52:59.046Z,10.60
2024-03-05T04:55:26.693Z,10.60
2024-03-05T04:58:03.469Z,11.00
2024-03-05T05:00:34.992Z,10.30
2024-03-05T05:03:05.602Z,11.10
2024-03-05T05:05:41.251Z,12.20
2024-03-05T05:08:09.517Z,10.50
2024-03-05T05:10:37.822Z,10.90
2024-03-05T05:13:05.288Z,10.70
2024-03-05T05:30:40.112Z,9.90
2024-03-05T05:33:09.251Z,10.80
2024-03-05T05:35:50.612Z,10.90
2024-03-05T05:38:19.251Z,11.30
2024-03-05T05:40:53.027Z,10.00
2024-03-05T05:43:21.508Z,11.00
2024-03-05T05:45:50.165Z,11.30
2024-03-05T05:48:29.285Z,12.20
2024-03-05T05:51:13.921Z,12.20
2024-03-05T05:54:27.252Z,11.20
2024-03-05T05:57:07.794Z,12.00
2024-03-05T06:02:55.500Z,10.30
2024-03-05T06:05:42.307Z,12.30
2024-03-05T06:17:39.914Z,12.80
2024-03-05T06:27:18.493Z,14.00
2024-03-05T06:33:15.326Z,13.30
2024-03-05T06:36:19.005Z,12.80
2024-03-05T06:39:28.724Z,12.40
2024-03-05T06:45:34.288Z,13.50
2024-03-05T06:51:34.108Z,13.80
2024-03-05T06:54:29.258Z,14.70
2024-03-05T06:57:19.063Z,14.30
2024-03-05T07:00:14.444Z,13.90
2024-03-05T07:08:56.768Z,15.30
2024-03-05T07:14:42.412Z,15.40
2024-03-05T07:20:32.140Z,15.70
2024-03-05T07:34:46.286Z,14.20
2024-03-05T07:37:15.397Z,14.40
2024-03-05T07:43:37.166Z,14.70
2024-03-05T07:46:08.018Z,13.70
2024-03-05T07:48:48.336Z,14.50
2024-03-05T07:51:21.260Z,15.00
2024-03-05T07:53:55.061Z,14.20
2024-03-05T07:56:25.927Z,15.40
2024-03-05T07:59:02.133Z,15.40
2024-03-05T08:01:49.000Z,14.50
2024-03-05T08:04:40.980Z,15.20
2024-03-05T08:09:55.136Z,15.50
2024-03-05T08:26:24.558Z,17.40
2024-03-05T08:29:01.638Z,16.90
2024-03-05T08:31:46.625Z,18.20
2024-03-05T08:34:14.759Z,17.20
2024-03-05T08:36:44.066Z,16.30
2024-03-05T08:39:22.201Z,16.30
2024-03-05T08:41:53.854Z,16.50
2024-03-05T08:44:21.752Z,15.20
2024-03-05T08:46:55.621Z,14.90
2024-03-05T08:49:27.550Z,15.50
2024-03-05T08:52:10.420Z,16.30
2024-03-05T08:57:49.563Z,15.00
2024-03-05T09:00:49.304Z,14.90
2024-03-05T09:03:16.955Z,14.90
2024-03-05T09:05:47.679Z,14.20
2024-03-05T09:08:15.482Z,15.40
2024-03-05T09:10:46.047Z,16.00
2024-03-05T09:13:17.725Z,15.30
2024-03-05T09:15:47.312Z,15.00
2024-03-05T09:18:23.747Z,14.60
2024-03-05T09:20:57.425Z,14.10
2024-03-05T09:23:24.134Z,14.90
2024-03-05T09:25:54.364Z,14.70
2024-03-05T09:28:22.429Z,15.00
2024-03-05T09:30:49.468Z,13.90
2024-03-05T09:33:18.888Z,14.20
2024-03-05T09:35:53.879Z,13.20
2024-03-05T09:38:27.229Z,14.60
2024-03-05T09:40:58.789Z,14.20
2024-03-05T09:43:27.424Z,14.40
2024-03-05T09:46:06.314Z,14.70
2024-03-05T09:48:36.546Z,15.70
2024-03-05T09:51:04.246Z,15.50
2024-03-05T09:53:36.050Z,14.90
2024-03-05T09:56:25.952Z,14.30
2024-03-05T09:58:53.368Z,14.80
2024-03-05T10:01:23.128Z,15.80
2024-03-05T10:03:50.320Z,16.40
2024-03-05T10:06:19.984Z,15.00
2024-03-05T10:08:47.680Z,17.40
2024-03-05T10:11:17.023Z,16.10
2024-03-05T10:13:44.663Z,16.50
2024-03-05T10:16:24.089Z,16.80
2024-03-05T10:18:54.091Z,15.90
2024-03-05T10:21:26.517Z,15.60
2024-03-05T10:24:06.444Z,16.30
2024-03-05T10:26:40.250Z,17.20
2024-03-05T10:29:12.786Z,15.20
2024-03-05T10:31:44.699Z,15.70
2024-03-05T10:34:13.718Z,17.70
2024-03-05T10:36:44.219Z,16.40
2024-03-05T10:39:16.315Z,15.30
2024-03-05T10:41:51.095Z,16.10
2024-03-05T10:44:20.921Z,17.00
2024-03-05T10:46:52.707Z,16.40
2024-03-05T10:49:21.106Z,17.20
2024-03-05T10:51:58.267Z,19.70
2024-03-05T10:54:27.443Z,18.40
2024-03-05T10:56:58.358Z,18.30
2024-03-05T10:59:40.616Z,17.50
2024-03-05T11:02:18.853Z,17.50
2024-03-05T11:04:47.777Z,17.00
2024-03-05T11:07:18.239Z,15.60
2024-03-05T11:09:49.655Z,16.70
2024-03-05T11:12:19.812Z,16.40
2024-03-05T11:14:51.058Z,16.10
2024-03-05T11:17:19.393Z,16.50
2024-03-05T11:19:49.513Z,15.00
2024-03-05T11:22:31.775Z,16.90
2024-03-05T11:25:14.557Z,17.20
2024-03-05T11:28:04.245Z,15.60
2024-03-05T11:30:32.622Z,16.10
2024-03-05T11:33:22.631Z,16.80
2024-03-05T11:35:50.862Z,17.60
2024-03-05T11:38:23.314Z,16.50
2024-03-05T11:40:50.975Z,17.90
2024-03-05T11:43:37.028Z,17.70
2024-03-05T11:46:04.102Z,16.50
2024-03-05T11:48:31.233Z,17.00
2024-03-05T11:51:03.846Z,17.60
2024-03-05T11:53:34.799Z,19.60
2024-03-05T11:56:10.123Z,18.20
2024-03-05T11:58:44.519Z,18.60
2024-03-05T12:01:17.729Z,19.10
2024-03-05T12:03:53.002Z,19.80
2024-03-05T12:06:28.598Z,19.70
2024-03-05T12:09:01.090Z,18.50
2024-03-05T12:11:28.253Z,19.70
2024-03-05T12:14:08.148Z,21.00
2024-03-05T12:16:35.355Z,20.10
2024-03-05T12:19:08.122Z,19.10
2024-03-05T12:21:37.867Z,19.20
2024-03-05T12:24:06.329Z,18.20
2024-03-05T12:26:35.357Z,19.70
2024-03-05T12:32:20.906Z,21.00
2024-03-05T12:34:50.851Z,19.30
2024-03-05T12:37:20.796Z,17.90
2024-03-05T12:39:59.329Z,19.50
2024-03-05T12:42:26.236Z,20.50
2024-03-05T12:45:13.605Z,18.50
2024-03-05T12:47:40.609Z,18.80
2024-03-05T12:50:08.886Z,19.90
2024-03-05T12:52:40.996Z,18.70
2024-03-05T12:55:11.974Z,20.00
2024-03-05T12:57:40.974Z,20.10
2024-03-05T13:00:12.412Z,19.80
2024-03-05T13:02:40.107Z,29.70
2024-03-05T13:05:11.295Z,32.40
2024-03-05T13:07:40.730Z,38.30
2024-03-05T13:10:12.361Z,24.00
2024-03-05T13:12:40.818Z,18.40
2024-03-05T13:15:09.861Z,21.70
2024-03-05T13:17:39.412Z,21.20
2024-03-05T13:20:21.447Z,18.50
2024-03-05T13:25:52.837Z,18.00
2024-03-05T13:28:32.988Z,18.00
2024-03-05T13:31:01.083Z,17.70
2024-03-05T13:36:10.633Z,17.90
2024-03-05T13:38:45.026Z,16.70
2024-03-05T13:41:16.785Z,18.00
2024-03-05T13:43:47.472Z,17.40
2024-03-05T13:46:15.101Z,18.30
2024-03-05T13:52:00.013Z,16.50
2024-03-05T13:54:28.705Z,18.30
2024-03-05T13:56:56.053Z,16.90
2024-03-05T13:59:30.404Z,18.50
2024-03-05T14:02:10.562Z,18.80
2024-03-05T14:04:45.650Z,18.40
2024-03-05T14:07:29.643Z,18.40
2024-03-05T14:09:57.778Z,27.20
2024-03-05T14:12:25.398Z,21.70
2024-03-05T14:14:55.439Z,20.50
2024-03-05T14:17:22.532Z,19.40
2024-03-05T14:19:49.947Z,18.80
2024-03-05T14:22:18.643Z,18.90
2024-03-05T14:25:19.096Z,18.60
2024-03-05T14:27:49.155Z,18.20
2024-03-05T14:30:23.733Z,20.10
2024-03-05T14:33:06.019Z,17.50
2024-03-05T14:35:34.933Z,19.20
2024-03-05T14:41:06.519Z,18.30
2024-03-05T14:43:34.593Z,18.70
2024-03-05T14:46:13.057Z,18.90
2024-03-05T14:48:48.863Z,19.40
2024-03-05T14:54:29.268Z,17.60
2024-03-05T14:57:06.482Z,17.70
2024-03-05T14:59:36.702Z,20.20
2024-03-05T15:02:07.501Z,17.50
2024-03-05T15:04:34.616Z,18.30
2024-03-05T15:07:04.377Z,19.00
2024-03-05T15:09:37.768Z,17.80
2024-03-05T15:12:05.371Z,17.30
2024-03-05T15:14:46.159Z,18.40
2024-03-05T15:17:15.590Z,18.20
2024-03-05T15:20:14.598Z,18.50
2024-03-05T15:22:49.001Z,19.40
2024-03-05T15:25:50.924Z,19.80
2024-03-05T15:28:18.791Z,19.80
2024-03-05T15:30:45.806Z,20.10
2024-03-05T15:35:42.118Z,19.40
2024-03-05T15:38:32.366Z,19.90
2024-03-05T15:41:11.877Z,32.00
2024-03-05T15:43:38.990Z,24.70
2024-03-05T15:46:06.079Z,20.10
2024-03-05T15:48:34.353Z,21.00
2024-03-05T15:51:02.080Z,21.70
2024-03-05T15:59:50.267Z,21.90
2024-03-05T16:02:18.424Z,21.70
2024-03-05T16:05:05.112Z,23.80
2024-03-05T16:07:33.610Z,22.80
2024-03-05T16:24:24.019Z,23.20
2024-03-05T16:32:19.109Z,23.70
2024-03-05T16:34:46.911Z,23.20
2024-03-05T16:37:17.086Z,22.80
2024-03-05T16:39:53.930Z,23.80
2024-03-05T16:45:01.411Z,23.30
2024-03-05T16:48:01.195Z,23.10
2024-03-05T16:50:29.255Z,22.50
2024-03-05T16:53:30.271Z,24.70
2024-03-05T16:55:57.357Z,25.00
2024-03-05T16:59:48.906Z,24.80
2024-03-05T17:02:18.288Z,23.10
2024-03-05T17:06:50.550Z,23.90
2024-03-05T17:09:33.490Z,22.40
2024-03-05T17:12:01.658Z,24.10
2024-03-05T17:14:28.400Z,24.80
2024-03-05T17:17:25.685Z,25.50
2024-03-05T17:20:11.097Z,24.40
2024-03-05T17:22:38.078Z,24.60
2024-03-05T17:25:38.301Z,27.00
2024-03-05T17:28:14.419Z,25.60
2024-03-05T17:33:35.861Z,24.60
2024-03-05T17:36:09.424Z,25.10
2024-03-05T17:38:42.700Z,28.70
2024-03-05T17:41:26.919Z,25.70
2024-03-05T17:47:12.287Z,23.80
2024-03-05T17:49:39.782Z,24.10
2024-03-05T17:52:34.104Z,23.60
2024-03-05T17:55:41.248Z,23.80
2024-03-05T17:59:00.002Z,23.40
2024-03-05T18:01:27.784Z,23.80
2024-03-05T18:21:57.766Z,24.60
2024-03-05T18:24:29.271Z,24.70
2024-03-05T18:27:08.268Z,24.60
2024-03-05T19:14:13.779Z,24.20
2024-03-05T20:10:49.418Z,22.60
2024-03-05T20:13:18.319Z,22.00
2024-03-05T20:15:48.485Z,22.70
2024-03-05T20:18:15.776Z,23.30
2024-03-05T20:20:43.640Z,22.00
2024-03-05T20:23:10.778Z,22.80
2024-03-05T20:31:46.009Z,21.70
2024-03-05T20:34:26.269Z,22.40
2024-03-05T20:36:59.369Z,22.60
2024-03-05T20:39:26.034Z,21.80
2024-03-05T20:41:52.792Z,20.40
2024-03-05T20:44:29.761Z,21.20
2024-03-05T20:47:13.293Z,22.30
2024-03-05T20:49:41.625Z,23.00
2024-03-05T20:52:08.714Z,24.10
2024-03-05T20:54:40.696Z,23.60
2024-03-05T20:57:07.818Z,23.00
2024-03-05T20:59:37.881Z,23.40
2024-03-05T21:02:10.735Z,23.80
2024-03-05T21:04:50.395Z,25.00
2024-03-05T21:07:17.429Z,24.80
2024-03-05T21:30:56.863Z,28.40
2024-03-05T21:33:25.059Z,36.10
2024-03-05T21:35:52.296Z,28.20
2024-03-05T21:38:19.965Z,41.40
2024-03-05T21:40:48.493Z,37.10
2024-03-05T21:43:16.779Z,50.70
2024-03-05T21:46:30.792Z,32.00
2024-03-05T21:49:06.856Z,30.10
2024-03-05T21:51:35.244Z,29.90
2024-03-05T21:54:02.550Z,28.30
2024-03-05T21:56:30.778Z,39.60
2024-03-05T21:58:59.394Z,29.10
2024-03-05T22:01:26.740Z,30.00
2024-03-05T22:03:53.920Z,26.90
2024-03-05T22:06:25.023Z,25.70
2024-03-05T22:20:59.350Z,27.00
2024-03-05T22:24:33.045Z,25.70
2024-03-05T22:26:59.679Z,24.40
2024-03-05T22:29:48.049Z,33.80
2024-03-05T22:35:59.844Z,29.40
2024-03-05T22:38:22.469Z,23.00
2024-03-05T22:40:49.548Z,25.50
2024-03-05T22:48:18.666Z,22.60
2024-03-05T22:50:55.446Z,23.00
2024-03-05T22:53:23.403Z,24.40
2024-03-05T22:55:50.282Z,25.70
2024-03-05T22:59:38.267Z,24.20
2024-03-05T23:02:22.119Z,23.90
2024-03-05T23:05:08.162Z,24.70
2024-03-05T23:07:46.846Z,23.20
2024-03-05T23:10:36.936Z,24.60
2024-03-05T23:20:38.832Z,23.90
2024-03-05T23:23:30.435Z,24.50
2024-03-05T23:28:52.162Z,26.00
2024-03-05T23:31:30.073Z,26.80
2024-03-05T23:34:52.679Z,25.30
2024-03-05T23:37:19.658Z,25.30
2024-03-05T23:44:30.879Z,23.40
2024-03-05T23:56:29.932Z,25.50
